createdAt,value
2023-08-08T00:00:01.874Z,0.00
2023-08-08T00:01:01.902Z,0.00
2023-08-08T00:02:01.526Z,0.00
2023-08-08T00:03:01.308Z,0.00
2023-08-08T00:04:01.368Z,0.00
2023-08-08T00:05:01.251Z,0.00
2023-08-08T00:06:01.278Z,0.00
2023-08-08T00:07:01.327Z,0.00
2023-08-08T00:08:01.232Z,0.00
2023-08-08T00:09:01.231Z,0.00
2023-08-08T00:10:01.235Z,0.00
2023-08-08T00:11:01.238Z,0.00
2023-08-08T00:12:01.452Z,0.00
2023-08-08T00:13:01.235Z,0.00
2023-08-08T00:14:01.232Z,0.00
2023-08-08T00:15:01.177Z,0.00
2023-08-08T00:16:01.280Z,0.00
2023-08-08T00:17:01.211Z,0.00
2023-08-08T00:18:01.213Z,0.00
2023-08-08T00:19:01.149Z,0.00
2023-08-08T00:20:01.145Z,0.00
2023-08-08T00:21:01.127Z,0.00
2023-08-08T00:22:01.225Z,0.00
2023-08-08T00:23:01.196Z,0.00
2023-08-08T00:24:01.146Z,0.00
2023-08-08T00:25:01.074Z,0.00
2023-08-08T00:26:01.064Z,0.00
2023-08-08T00:27:01.088Z,0.00
2023-08-08T00:28:01.124Z,0.00
2023-08-08T00:29:01.921Z,0.00
2023-08-08T00:30:01.084Z,0.00
2023-08-08T00:31:02.122Z,0.00
2023-08-08T00:32:01.287Z,0.00
2023-08-08T00:33:01.105Z,0.00
2023-08-08T00:34:01.075Z,0.00
2023-08-08T00:35:01.071Z,0.00
2023-08-08T00:36:01.006Z,0.00
2023-08-08T00:37:01.047Z,0.00
2023-08-08T00:38:01.015Z,0.00
2023-08-08T00:39:01.053Z,0.00
2023-08-08T00:40:00.986Z,0.00
2023-08-08T00:41:00.968Z,0.00
2023-08-08T00:42:01.220Z,0.00
2023-08-08T00:43:00.941Z,0.00
2023-08-08T00:44:00.963Z,0.00
2023-08-08T00:45:00.928Z,0.00
2023-08-08T00:46:00.948Z,0.00
2023-08-08T00:47:00.985Z,0.00
2023-08-08T00:48:01.091Z,0.00
2023-08-08T00:49:01.006Z,0.00
2023-08-08T00:50:00.967Z,0.00
2023-08-08T00:51:00.921Z,0.00
2023-08-08T00:52:01.290Z,0.00
2023-08-08T00:53:00.987Z,0.00
2023-08-08T00:54:00.852Z,0.00
2023-08-08T00:55:00.928Z,0.00
2023-08-08T00:56:00.847Z,0.00
2023-08-08T00:57:01.069Z,0.00
2023-08-08T00:58:00.941Z,0.00
2023-08-08T00:59:00.889Z,0.00
2023-08-08T01:00:00.835Z,0.00
2023-08-08T01:01:00.846Z,0.00
2023-08-08T01:02:00.917Z,0.00
2023-08-08T01:03:00.829Z,0.00
2023-08-08T01:04:01.388Z,0.00
2023-08-08T01:05:00.777Z,0.00
2023-08-08T01:06:00.817Z,0.00
2023-08-08T01:07:00.830Z,0.00
2023-08-08T01:08:00.773Z,0.00
2023-08-08T01:09:00.801Z,0.00
2023-08-08T01:10:00.766Z,0.00
2023-08-08T01:11:00.728Z,0.00
2023-08-08T01:12:00.839Z,0.00
2023-08-08T01:13:00.709Z,0.00
2023-08-08T01:14:01.435Z,0.00
2023-08-08T01:15:00.699Z,0.00
2023-08-08T01:16:00.682Z,0.00
2023-08-08T01:17:00.760Z,0.00
2023-08-08T01:18:00.736Z,0.00
2023-08-08T01:19:00.675Z,0.00
2023-08-08T01:20:00.678Z,0.00
2023-08-08T01:21:00.677Z,0.00
2023-08-08T01:22:02.009Z,0.00
2023-08-08T01:23:00.674Z,0.00
2023-08-08T01:24:01.286Z,0.00
2023-08-08T01:25:01.385Z,0.00
2023-08-08T01:26:00.629Z,0.00
2023-08-08T01:27:00.617Z,0.00
2023-08-08T01:28:01.148Z,0.00
2023-08-08T01:29:00.582Z,0.00
2023-08-08T01:30:00.562Z,0.00
2023-08-08T01:31:00.576Z,0.00
2023-08-08T01:32:00.789Z,0.00
2023-08-08T01:33:00.592Z,0.00
2023-08-08T01:34:00.713Z,0.00
2023-08-08T01:35:00.681Z,0.00
2023-08-08T01:36:00.520Z,0.00
2023-08-08T01:37:00.532Z,0.00
2023-08-08T01:38:00.564Z,0.00
2023-08-08T01:39:00.605Z,0.00
2023-08-08T01:40:32.426Z,0.00
2023-08-08T01:41:01.384Z,0.00
2023-08-08T01:43:34.778Z,0.00
2023-08-08T01:44:02.192Z,0.00
2023-08-08T01:45:01.405Z,0.00
2023-08-08T01:46:01.564Z,0.00
2023-08-08T01:47:00.432Z,0.00
2023-08-08T01:48:00.576Z,0.00
2023-08-08T01:49:01.404Z,0.00
2023-08-08T01:50:00.415Z,0.00
2023-08-08T01:51:00.479Z,0.00
2023-08-08T01:52:00.733Z,0.00
2023-08-08T01:53:06.713Z,0.00
2023-08-08T01:54:01.401Z,0.00
2023-08-08T01:55:00.918Z,0.00
2023-08-08T01:56:01.050Z,0.00
2023-08-08T01:57:00.431Z,0.00
2023-08-08T01:58:00.931Z,0.00
2023-08-08T01:59:01.836Z,0.00
2023-08-08T02:00:01.032Z,0.00
2023-08-08T02:01:00.444Z,0.00
2023-08-08T02:02:00.726Z,0.00
2023-08-08T02:03:01.040Z,0.00
2023-08-08T02:04:01.890Z,0.00
2023-08-08T02:05:02.373Z,0.00
2023-08-08T02:06:00.261Z,0.00
2023-08-08T02:07:00.401Z,0.00
2023-08-08T02:08:00.367Z,0.00
2023-08-08T02:09:00.308Z,0.00
2023-08-08T02:10:00.498Z,0.00
2023-08-08T02:11:00.322Z,0.00
2023-08-08T02:12:01.753Z,0.00
2023-08-08T02:13:00.248Z,0.00
2023-08-08T02:14:00.275Z,0.00
2023-08-08T02:15:00.941Z,0.00
2023-08-08T02:16:01.709Z,0.00
2023-08-08T02:17:01.694Z,0.00
2023-08-08T02:18:00.300Z,0.00
2023-08-08T02:19:00.685Z,0.00
2023-08-08T02:20:01.789Z,0.00
2023-08-08T02:21:01.110Z,0.00
2023-08-08T02:22:01.481Z,0.00
2023-08-08T02:23:00.255Z,0.00
2023-08-08T02:24:00.209Z,0.00
2023-08-08T02:25:00.934Z,0.00
2023-08-08T02:26:00.221Z,0.00
2023-08-08T02:27:00.220Z,0.00
2023-08-08T02:28:00.289Z,0.00
2023-08-08T02:29:01.029Z,0.00
2023-08-08T02:30:00.941Z,0.00
2023-08-08T02:31:00.150Z,0.00
2023-08-08T02:32:01.112Z,0.00
2023-08-08T02:33:01.234Z,0.00
2023-08-08T02:34:01.801Z,0.00
2023-08-08T02:35:00.110Z,0.00
2023-08-08T02:36:00.906Z,0.00
2023-08-08T02:37:00.071Z,0.00
2023-08-08T02:38:00.084Z,0.00
2023-08-08T02:39:00.036Z,0.00
2023-08-08T02:40:00.078Z,0.00
2023-08-08T02:41:00.174Z,0.00
2023-08-08T02:42:00.330Z,0.00
2023-08-08T02:43:00.931Z,0.00
2023-08-08T02:44:01.963Z,0.00
2023-08-08T02:45:00.693Z,0.00
2023-08-08T02:46:00.095Z,0.00
2023-08-08T02:47:03.349Z,0.00
2023-08-08T02:48:00.180Z,0.00
2023-08-08T02:49:00.965Z,0.00
2023-08-08T02:50:00.893Z,0.00
2023-08-08T02:51:00.033Z,0.00
2023-08-08T02:52:00.276Z,0.00
2023-08-08T02:53:12.455Z,0.00
2023-08-08T02:54:00.994Z,0.00
2023-08-08T02:54:59.942Z,0.00
2023-08-08T02:56:00.041Z,0.00
2023-08-08T02:56:59.948Z,0.00
2023-08-08T02:57:59.924Z,0.00
2023-08-08T02:59:00.843Z,0.00
2023-08-08T02:59:59.988Z,0.00
2023-08-08T03:00:59.909Z,0.00
2023-08-08T03:02:00.877Z,0.00
2023-08-08T03:02:59.968Z,0.00
2023-08-08T03:04:00.623Z,0.00
2023-08-08T03:05:00.423Z,0.00
2023-08-08T03:05:59.840Z,0.00
2023-08-08T03:06:59.868Z,0.00
2023-08-08T03:07:59.846Z,0.00
2023-08-08T03:09:00.781Z,0.00
2023-08-08T03:09:59.809Z,0.00
2023-08-08T03:11:00.529Z,0.00
2023-08-08T03:12:00.649Z,0.00
2023-08-08T03:13:01.197Z,0.00
2023-08-08T03:14:01.727Z,0.00
2023-08-08T03:14:59.833Z,0.00
2023-08-08T03:15:59.836Z,0.00
2023-08-08T03:17:01.565Z,0.00
2023-08-08T03:17:59.977Z,0.00
2023-08-08T03:19:01.202Z,0.00
2023-08-08T03:19:59.896Z,0.00
2023-08-08T03:20:59.794Z,0.00
2023-08-08T03:22:00.877Z,0.00
2023-08-08T03:23:01.720Z,0.00
2023-08-08T03:23:59.714Z,0.00
2023-08-08T03:24:59.704Z,0.00
2023-08-08T03:25:59.734Z,0.00
2023-08-08T03:26:59.717Z,0.00
2023-08-08T03:27:59.800Z,0.00
2023-08-08T03:29:00.598Z,0.00
2023-08-08T03:29:59.693Z,0.00
2023-08-08T03:31:01.159Z,0.00
2023-08-08T03:32:00.970Z,0.00
2023-08-08T03:32:59.725Z,0.00
2023-08-08T03:33:59.682Z,0.00
2023-08-08T03:34:59.663Z,0.00
2023-08-08T03:36:02.279Z,0.00
2023-08-08T03:36:59.696Z,0.00
2023-08-08T03:37:59.580Z,0.00
2023-08-08T03:39:00.410Z,0.00
2023-08-08T03:40:01.332Z,0.00
2023-08-08T03:41:00.478Z,0.00
2023-08-08T03:41:59.776Z,0.00
2023-08-08T03:42:59.582Z,0.00
2023-08-08T03:43:59.511Z,0.00
2023-08-08T03:44:59.559Z,0.00
2023-08-08T03:45:59.579Z,0.00
2023-08-08T03:47:09.389Z,0.00
2023-08-08T04:03:45.786Z,5.62
2023-08-08T04:04:45.392Z,5.62
2023-08-08T04:05:46.600Z,5.62
2023-08-08T04:06:46.531Z,5.62
2023-08-08T04:07:48.379Z,5.62
2023-08-08T04:08:48.078Z,5.62
2023-08-08T04:09:48.060Z,5.62
2023-08-08T04:10:46.696Z,5.62
2023-08-08T04:11:46.636Z,5.62
2023-08-08T04:12:46.504Z,5.62
2023-08-08T04:13:46.575Z,11.25
2023-08-08T04:14:47.110Z,11.25
2023-08-08T04:15:46.508Z,11.25
2023-08-08T04:16:46.494Z,11.25
2023-08-08T04:17:46.533Z,11.25
2023-08-08T04:18:46.493Z,11.25
2023-08-08T04:19:46.588Z,16.88
2023-08-08T04:20:47.085Z,16.88
2023-08-08T04:21:47.141Z,16.88
2023-08-08T04:22:47.365Z,16.88
2023-08-08T04:23:46.509Z,22.50
2023-08-08T04:24:47.162Z,22.50
2023-08-08T04:25:48.134Z,22.50
2023-08-08T04:26:46.475Z,22.50
2023-08-08T04:27:46.957Z,28.12
2023-08-08T04:28:47.023Z,28.12
2023-08-08T04:29:46.418Z,28.12
2023-08-08T04:30:47.637Z,28.12
2023-08-08T04:31:47.100Z,33.75
2023-08-08T04:32:46.396Z,33.75
2023-08-08T04:33:46.445Z,33.75
2023-08-08T04:34:47.124Z,33.75
2023-08-08T04:35:47.370Z,39.38
2023-08-08T04:36:46.336Z,39.38
2023-08-08T04:37:48.100Z,45.00
2023-08-08T04:38:46.343Z,45.00
2023-08-08T04:39:46.416Z,50.62
2023-08-08T04:40:52.578Z,50.62
2023-08-08T04:41:47.347Z,56.25
2023-08-08T04:42:46.445Z,61.88
2023-08-08T04:43:47.120Z,67.50
2023-08-08T04:44:46.282Z,73.12
2023-08-08T04:45:46.304Z,78.75
2023-08-08T04:46:46.976Z,84.38
2023-08-08T04:47:46.487Z,84.38
2023-08-08T04:48:46.231Z,95.62
2023-08-08T04:49:46.237Z,101.25
2023-08-08T04:50:46.861Z,106.88
2023-08-08T04:51:46.836Z,118.12
2023-08-08T04:52:46.231Z,129.38
2023-08-08T04:53:46.856Z,135.00
2023-08-08T04:54:47.029Z,146.25
2023-08-08T04:55:46.320Z,157.50
2023-08-08T04:56:46.842Z,168.75
2023-08-08T04:57:46.176Z,180.00
2023-08-08T04:58:46.243Z,191.25
2023-08-08T04:59:47.062Z,202.50
2023-08-08T05:00:46.190Z,208.12
2023-08-08T05:01:46.170Z,219.38
2023-08-08T05:02:46.192Z,230.62
2023-08-08T05:03:47.181Z,241.88
2023-08-08T05:04:46.100Z,270.00
2023-08-08T05:05:48.046Z,303.75
2023-08-08T05:06:46.125Z,348.75
2023-08-08T05:07:46.225Z,410.62
2023-08-08T05:08:46.114Z,1558.12
2023-08-08T05:09:47.842Z,1237.50
2023-08-08T05:10:47.376Z,826.88
2023-08-08T05:11:46.094Z,2160.00
2023-08-08T05:12:46.040Z,1878.75
2023-08-08T05:13:46.048Z,1451.25
2023-08-08T05:14:46.546Z,545.62
2023-08-08T05:15:46.098Z,2328.75
2023-08-08T05:16:46.609Z,1918.12
2023-08-08T05:17:46.866Z,2098.12
2023-08-08T05:18:46.568Z,2469.38
2023-08-08T05:21:43.682Z,2733.75
2023-08-08T05:22:51.263Z,2784.38
2023-08-08T05:23:48.165Z,2880.00
2023-08-08T05:24:44.745Z,2379.38
2023-08-08T05:25:46.119Z,2643.75
2023-08-08T05:26:45.309Z,2671.88
2023-08-08T05:27:44.685Z,2413.12
2023-08-08T05:28:44.696Z,2778.75
2023-08-08T05:29:44.653Z,2908.12
2023-08-08T05:30:44.722Z,3026.25
2023-08-08T05:31:44.845Z,3183.75
2023-08-08T05:32:44.762Z,3262.50
2023-08-08T05:33:45.351Z,3166.88
2023-08-08T05:34:45.305Z,2767.50
2023-08-08T05:35:44.714Z,2705.62
2023-08-08T05:36:44.684Z,2053.12
2023-08-08T05:37:44.723Z,2081.25
2023-08-08T05:38:44.623Z,2497.50
2023-08-08T05:40:17.286Z,2998.12
2023-08-08T05:41:16.571Z,3251.25
2023-08-08T05:41:44.584Z,3279.38
2023-08-08T05:43:17.311Z,3307.50
2023-08-08T05:43:44.598Z,3380.62
2023-08-08T05:44:44.547Z,3363.75
2023-08-08T05:45:45.506Z,3431.25
2023-08-08T05:46:44.585Z,3397.50
2023-08-08T05:47:45.509Z,3363.75
2023-08-08T05:48:46.282Z,3448.12
2023-08-08T05:49:44.621Z,3538.12
2023-08-08T05:50:45.525Z,3701.25
2023-08-08T05:51:44.852Z,3678.75
2023-08-08T05:52:44.574Z,3583.12
2023-08-08T05:53:44.684Z,2446.88
2023-08-08T05:54:45.463Z,3273.75
2023-08-08T05:55:44.556Z,950.62
2023-08-08T05:56:44.490Z,1147.50
2023-08-08T05:57:44.484Z,1046.25
2023-08-08T05:58:45.470Z,1203.75
2023-08-08T05:59:44.459Z,1451.25
2023-08-08T06:00:45.427Z,3189.38
2023-08-08T06:01:44.535Z,3706.88
2023-08-08T06:02:45.318Z,3594.38
2023-08-08T06:03:44.518Z,3538.12
2023-08-08T06:04:44.523Z,3740.62
2023-08-08T06:05:44.423Z,3813.75
2023-08-08T06:06:48.087Z,3712.50
2023-08-08T06:07:45.381Z,3661.88
2023-08-08T06:08:44.343Z,3577.50
2023-08-08T06:09:44.349Z,3628.12
2023-08-08T06:10:44.384Z,3538.12
2023-08-08T06:11:44.342Z,3678.75
2023-08-08T06:12:44.342Z,3746.25
2023-08-08T06:13:44.392Z,3774.38
2023-08-08T06:14:44.380Z,3853.12
2023-08-08T06:15:44.365Z,3864.38
2023-08-08T06:16:44.363Z,3948.75
2023-08-08T06:17:44.932Z,3948.75
2023-08-08T06:18:45.003Z,3892.50
2023-08-08T06:19:44.375Z,4027.50
2023-08-08T06:20:44.325Z,4201.88
2023-08-08T06:21:44.364Z,3195.00
2023-08-08T06:22:44.306Z,3211.88
2023-08-08T06:23:44.253Z,2047.50
2023-08-08T06:24:44.258Z,1755.00
2023-08-08T06:25:44.487Z,1051.88
2023-08-08T06:26:44.310Z,787.50
2023-08-08T06:27:44.245Z,753.75
2023-08-08T06:28:44.307Z,748.12
2023-08-08T06:29:44.249Z,765.00
2023-08-08T06:30:44.299Z,798.75
2023-08-08T06:31:44.951Z,821.25
2023-08-08T06:32:45.025Z,945.00
2023-08-08T06:33:44.212Z,2025.00
2023-08-08T06:34:44.165Z,1288.12
2023-08-08T06:35:44.153Z,1305.00
2023-08-08T06:36:44.180Z,821.25
2023-08-08T06:37:44.188Z,646.88
2023-08-08T06:38:44.280Z,562.50
2023-08-08T06:39:44.227Z,523.12
2023-08-08T06:40:44.130Z,495.00
2023-08-08T06:41:44.218Z,461.25
2023-08-08T06:42:44.199Z,433.12
2023-08-08T06:43:44.178Z,410.62
2023-08-08T06:44:44.969Z,393.75
2023-08-08T06:45:44.152Z,388.12
2023-08-08T06:46:44.088Z,376.88
2023-08-08T06:47:44.072Z,365.62
2023-08-08T06:48:44.102Z,360.00
2023-08-08T06:49:44.104Z,348.75
2023-08-08T06:50:44.100Z,354.38
2023-08-08T06:51:44.030Z,343.12
2023-08-08T06:52:44.833Z,337.50
2023-08-08T06:53:44.809Z,337.50
2023-08-08T06:54:44.020Z,331.88
2023-08-08T06:55:44.008Z,331.88
2023-08-08T06:56:44.936Z,337.50
2023-08-08T06:57:44.032Z,343.12
2023-08-08T06:58:44.008Z,348.75
2023-08-08T06:59:44.046Z,343.12
2023-08-08T07:00:43.969Z,343.12
2023-08-08T07:01:43.984Z,348.75
2023-08-08T07:02:44.057Z,337.50
2023-08-08T07:03:44.034Z,326.25
2023-08-08T07:04:44.009Z,315.00
2023-08-08T07:05:44.942Z,303.75
2023-08-08T07:06:44.458Z,298.12
2023-08-08T07:07:44.491Z,286.88
2023-08-08T07:08:43.922Z,281.25
2023-08-08T07:09:43.893Z,281.25
2023-08-08T07:10:43.914Z,275.62
2023-08-08T07:11:43.933Z,275.62
2023-08-08T07:12:49.318Z,275.62
2023-08-08T07:13:43.984Z,275.62
2023-08-08T07:14:43.970Z,275.62
2023-08-08T07:15:44.478Z,275.62
2023-08-08T07:16:43.931Z,275.62
2023-08-08T07:17:43.852Z,281.25
2023-08-08T07:18:43.848Z,281.25
2023-08-08T07:19:43.851Z,286.88
2023-08-08T07:20:43.797Z,286.88
2023-08-08T07:21:45.048Z,292.50
2023-08-08T07:22:43.828Z,292.50
2023-08-08T07:23:43.868Z,292.50
2023-08-08T07:24:43.845Z,286.88
2023-08-08T07:25:43.825Z,286.88
2023-08-08T07:26:43.844Z,286.88
2023-08-08T07:27:43.807Z,281.25
2023-08-08T07:28:43.759Z,281.25
2023-08-08T07:29:44.087Z,286.88
2023-08-08T07:30:43.767Z,292.50
2023-08-08T07:31:43.840Z,303.75
2023-08-08T07:32:43.798Z,309.38
2023-08-08T07:33:43.762Z,320.62
2023-08-08T07:34:43.824Z,326.25
2023-08-08T07:35:43.719Z,343.12
2023-08-08T07:36:43.717Z,354.38
2023-08-08T07:37:43.709Z,365.62
2023-08-08T07:38:44.260Z,371.25
2023-08-08T07:39:43.698Z,376.88
2023-08-08T07:40:47.118Z,388.12
2023-08-08T07:41:43.725Z,393.75
2023-08-08T07:43:17.846Z,393.75
2023-08-08T07:43:44.328Z,405.00
2023-08-08T07:44:46.460Z,427.50
2023-08-08T07:45:44.449Z,489.38
2023-08-08T07:46:44.569Z,478.12
2023-08-08T07:47:43.639Z,500.62
2023-08-08T07:48:43.587Z,585.00
2023-08-08T07:49:44.654Z,720.00
2023-08-08T07:50:43.570Z,2323.12
2023-08-08T07:51:44.393Z,1822.50
2023-08-08T07:52:43.570Z,894.38
2023-08-08T07:53:45.693Z,950.62
2023-08-08T07:54:44.540Z,984.38
2023-08-08T07:55:43.531Z,1063.12
2023-08-08T07:56:43.564Z,1496.25
2023-08-08T07:57:43.569Z,2711.25
2023-08-08T07:58:43.585Z,1541.25
2023-08-08T07:59:43.490Z,1856.25
2023-08-08T08:00:43.512Z,1428.75
2023-08-08T08:01:44.437Z,1068.75
2023-08-08T08:02:43.786Z,1029.38
2023-08-08T08:03:43.573Z,1057.50
2023-08-08T08:04:43.529Z,1074.38
2023-08-08T08:05:43.783Z,1057.50
2023-08-08T08:06:51.854Z,1046.25
2023-08-08T08:07:44.521Z,1046.25
2023-08-08T08:08:44.481Z,1006.88
2023-08-08T08:09:44.036Z,995.62
2023-08-08T08:10:43.402Z,978.75
2023-08-08T08:11:43.449Z,1023.75
2023-08-08T08:12:43.497Z,1096.88
2023-08-08T08:13:44.037Z,1676.25
2023-08-08T08:14:44.873Z,1558.12
2023-08-08T08:15:43.435Z,1175.62
2023-08-08T08:16:43.439Z,1040.62
2023-08-08T08:17:43.397Z,990.00
2023-08-08T08:18:43.490Z,950.62
2023-08-08T08:19:43.423Z,928.12
2023-08-08T08:20:43.386Z,956.25
2023-08-08T08:21:43.339Z,1051.88
2023-08-08T08:22:43.306Z,1423.12
2023-08-08T08:23:43.349Z,1665.00
2023-08-08T08:24:43.325Z,2250.00
2023-08-08T08:25:43.327Z,2036.25
2023-08-08T08:26:43.311Z,1215.00
2023-08-08T08:27:43.297Z,1153.12
2023-08-08T08:28:43.397Z,1096.88
2023-08-08T08:29:43.303Z,1091.25
2023-08-08T08:30:43.278Z,1698.75
2023-08-08T08:31:43.279Z,2126.25
2023-08-08T08:32:44.011Z,2030.62
2023-08-08T08:33:43.254Z,2475.00
2023-08-08T08:34:43.230Z,2767.50
2023-08-08T08:35:43.819Z,3206.25
2023-08-08T08:36:43.281Z,3279.38
2023-08-08T08:37:43.321Z,3324.38
2023-08-08T08:38:43.236Z,3408.75
2023-08-08T08:39:43.189Z,2587.50
2023-08-08T08:40:43.197Z,1181.25
2023-08-08T08:41:43.225Z,1653.75
2023-08-08T08:42:43.201Z,1625.62
2023-08-08T08:43:43.170Z,900.00
2023-08-08T08:44:43.149Z,821.25
2023-08-08T08:45:43.145Z,1749.38
2023-08-08T08:46:43.878Z,905.62
2023-08-08T08:47:43.259Z,815.62
2023-08-08T08:48:43.969Z,2981.25
2023-08-08T08:49:43.793Z,832.50
2023-08-08T08:50:43.322Z,731.25
2023-08-08T08:51:43.198Z,2165.62
2023-08-08T08:52:43.089Z,1991.25
2023-08-08T08:53:43.085Z,804.38
2023-08-08T08:54:43.090Z,736.88
2023-08-08T08:55:43.097Z,978.75
2023-08-08T08:56:43.152Z,810.00
2023-08-08T08:57:43.119Z,736.88
2023-08-08T08:58:43.057Z,658.12
2023-08-08T08:59:43.044Z,652.50
2023-08-08T09:00:43.070Z,742.50
2023-08-08T09:01:43.140Z,686.25
2023-08-08T09:02:43.185Z,675.00
2023-08-08T09:03:43.230Z,607.50
2023-08-08T09:04:43.074Z,624.38
2023-08-08T09:05:43.032Z,680.62
2023-08-08T09:06:43.129Z,590.62
2023-08-08T09:07:43.051Z,585.00
2023-08-08T09:09:17.212Z,540.00
2023-08-08T09:09:42.959Z,691.88
2023-08-08T09:10:43.014Z,1209.38
2023-08-08T09:11:42.948Z,888.75
2023-08-08T09:12:42.940Z,973.12
2023-08-08T09:13:42.914Z,995.62
2023-08-08T09:14:42.928Z,1175.62
2023-08-08T09:15:43.669Z,1220.62
2023-08-08T09:16:42.976Z,635.62
2023-08-08T09:17:48.515Z,545.62
2023-08-08T09:18:43.889Z,596.25
2023-08-08T09:19:42.882Z,765.00
2023-08-08T09:20:43.941Z,787.50
2023-08-08T09:21:44.403Z,945.00
2023-08-08T09:22:43.635Z,1198.12
2023-08-08T09:23:44.058Z,1215.00
2023-08-08T09:24:42.914Z,1113.75
2023-08-08T09:25:42.902Z,1113.75
2023-08-08T09:26:44.043Z,1181.25
2023-08-08T09:27:43.545Z,1063.12
2023-08-08T09:28:42.824Z,1254.38
2023-08-08T09:29:42.827Z,1333.12
2023-08-08T09:30:42.955Z,1355.62
2023-08-08T09:31:42.809Z,1417.50
2023-08-08T09:32:42.783Z,1496.25
2023-08-08T09:33:44.573Z,1642.50
2023-08-08T09:34:42.789Z,765.00
2023-08-08T09:35:44.255Z,1614.38
2023-08-08T09:36:42.795Z,1023.75
2023-08-08T09:37:43.548Z,1541.25
2023-08-08T09:38:42.826Z,1485.00
2023-08-08T09:39:42.759Z,1012.50
2023-08-08T09:40:42.741Z,933.75
2023-08-08T09:41:42.766Z,838.12
2023-08-08T09:42:42.887Z,888.75
2023-08-08T09:43:42.723Z,821.25
2023-08-08T09:44:42.698Z,798.75
2023-08-08T09:45:42.697Z,652.50
2023-08-08T09:46:43.387Z,669.38
2023-08-08T09:47:42.724Z,714.38
2023-08-08T09:48:42.665Z,967.50
2023-08-08T09:49:42.683Z,1096.88
2023-08-08T09:50:42.686Z,1029.38
2023-08-08T09:51:42.691Z,804.38
2023-08-08T09:52:42.753Z,1215.00
2023-08-08T09:53:42.684Z,905.62
2023-08-08T09:54:42.710Z,860.62
2023-08-08T09:55:42.644Z,748.12
2023-08-08T09:56:42.687Z,641.25
2023-08-08T09:57:43.546Z,534.38
2023-08-08T09:58:42.638Z,450.00
2023-08-08T09:59:42.588Z,399.38
2023-08-08T10:00:42.605Z,388.12
2023-08-08T10:01:42.705Z,393.75
2023-08-08T10:02:42.700Z,540.00
2023-08-08T10:03:42.629Z,860.62
2023-08-08T10:04:42.569Z,663.75
2023-08-08T10:05:42.591Z,562.50
2023-08-08T10:06:42.532Z,472.50
2023-08-08T10:07:42.562Z,399.38
2023-08-08T10:08:42.564Z,360.00
2023-08-08T10:09:42.549Z,348.75
2023-08-08T10:10:43.739Z,354.38
2023-08-08T10:11:43.536Z,343.12
2023-08-08T10:12:42.590Z,365.62
2023-08-08T10:13:42.530Z,427.50
2023-08-08T10:14:42.480Z,478.12
2023-08-08T10:15:42.553Z,461.25
2023-08-08T10:16:44.183Z,427.50
2023-08-08T10:17:42.590Z,399.38
2023-08-08T10:18:43.134Z,399.38
2023-08-08T10:19:43.140Z,596.25
2023-08-08T10:20:42.494Z,663.75
2023-08-08T10:21:42.551Z,748.12
2023-08-08T10:22:43.131Z,697.50
2023-08-08T10:23:42.610Z,675.00
2023-08-08T10:24:42.427Z,641.25
2023-08-08T10:25:42.479Z,736.88
2023-08-08T10:26:42.498Z,871.88
2023-08-08T10:27:43.381Z,860.62
2023-08-08T10:28:42.518Z,866.25
2023-08-08T10:29:42.420Z,832.50
2023-08-08T10:30:43.099Z,939.38
2023-08-08T10:31:42.438Z,956.25
2023-08-08T10:32:43.520Z,990.00
2023-08-08T10:33:43.034Z,973.12
2023-08-08T10:34:42.441Z,911.25
2023-08-08T10:35:42.375Z,866.25
2023-08-08T10:36:42.369Z,866.25
2023-08-08T10:37:42.394Z,866.25
2023-08-08T10:38:42.423Z,900.00
2023-08-08T10:39:42.405Z,883.12
2023-08-08T10:40:42.328Z,787.50
2023-08-08T10:41:42.948Z,731.25
2023-08-08T10:42:42.277Z,720.00
2023-08-08T10:43:42.338Z,804.38
2023-08-08T10:44:42.311Z,888.75
2023-08-08T10:45:43.094Z,781.88
2023-08-08T10:46:42.744Z,804.38
2023-08-08T10:47:42.271Z,821.25
2023-08-08T10:48:42.248Z,821.25
2023-08-08T10:49:42.300Z,911.25
2023-08-08T10:50:44.068Z,838.12
2023-08-08T10:51:42.251Z,686.25
2023-08-08T10:52:42.255Z,658.12
2023-08-08T10:53:43.045Z,624.38
2023-08-08T10:54:42.159Z,630.00
2023-08-08T10:55:42.289Z,613.12
2023-08-08T10:56:42.230Z,607.50
2023-08-08T10:57:42.219Z,551.25
2023-08-08T10:58:43.990Z,500.62
2023-08-08T10:59:42.223Z,483.75
2023-08-08T11:00:42.238Z,466.88
2023-08-08T11:01:42.149Z,444.38
2023-08-08T11:02:42.202Z,410.62
2023-08-08T11:03:44.866Z,399.38
2023-08-08T11:04:42.074Z,399.38
2023-08-08T11:05:42.997Z,393.75
2023-08-08T11:06:42.152Z,405.00
2023-08-08T11:07:42.162Z,438.75
2023-08-08T11:08:42.077Z,472.50
2023-08-08T11:09:42.166Z,506.25
2023-08-08T11:10:42.131Z,523.12
2023-08-08T11:11:42.954Z,517.50
2023-08-08T11:12:43.003Z,545.62
2023-08-08T11:13:42.038Z,579.38
2023-08-08T11:14:42.094Z,618.75
2023-08-08T11:15:42.094Z,663.75
2023-08-08T11:16:42.106Z,697.50
2023-08-08T11:17:43.145Z,720.00
2023-08-08T11:18:42.015Z,804.38
2023-08-08T11:19:42.049Z,793.12
2023-08-08T11:20:41.989Z,770.62
2023-08-08T11:21:41.989Z,759.38
2023-08-08T11:22:42.049Z,759.38
2023-08-08T11:23:42.041Z,765.00
2023-08-08T11:24:42.877Z,765.00
2023-08-08T11:25:41.993Z,742.50
2023-08-08T11:26:42.133Z,720.00
2023-08-08T11:27:43.063Z,697.50
2023-08-08T11:28:43.737Z,658.12
2023-08-08T11:29:42.039Z,624.38
2023-08-08T11:30:42.440Z,573.75
2023-08-08T11:31:41.972Z,540.00
2023-08-08T11:32:42.171Z,540.00
2023-08-08T11:33:41.973Z,523.12
2023-08-08T11:34:41.930Z,495.00
2023-08-08T11:35:41.851Z,478.12
2023-08-08T11:36:41.921Z,461.25
2023-08-08T11:37:42.617Z,438.75
2023-08-08T11:38:42.570Z,416.25
2023-08-08T11:39:44.885Z,416.25
2023-08-08T11:40:45.516Z,410.62
2023-08-08T11:41:44.626Z,427.50
2023-08-08T11:42:41.813Z,438.75
2023-08-08T11:43:47.517Z,433.12
2023-08-08T11:44:43.595Z,433.12
2023-08-08T11:45:41.931Z,433.12
2023-08-08T11:46:41.905Z,421.88
2023-08-08T11:47:42.493Z,399.38
2023-08-08T11:48:42.637Z,393.75
2023-08-08T11:49:41.791Z,376.88
2023-08-08T11:50:41.783Z,360.00
2023-08-08T11:51:41.751Z,320.62
2023-08-08T11:52:41.776Z,270.00
2023-08-08T11:53:41.864Z,241.88
2023-08-08T11:54:42.620Z,219.38
2023-08-08T11:55:41.744Z,191.25
2023-08-08T11:56:41.776Z,174.38
2023-08-08T11:57:41.696Z,163.12
2023-08-08T11:58:41.677Z,157.50
2023-08-08T11:59:41.653Z,157.50
2023-08-08T12:00:41.718Z,151.88
2023-08-08T12:01:41.664Z,146.25
2023-08-08T12:02:41.810Z,140.62
2023-08-08T12:03:41.720Z,135.00
2023-08-08T12:04:42.635Z,135.00
2023-08-08T12:05:41.659Z,140.62
2023-08-08T12:06:41.821Z,151.88
2023-08-08T12:07:42.385Z,168.75
2023-08-08T12:08:41.579Z,185.62
2023-08-08T12:09:41.665Z,208.12
2023-08-08T12:10:41.711Z,230.62
2023-08-08T12:11:41.586Z,253.12
2023-08-08T12:12:41.592Z,270.00
2023-08-08T12:13:41.627Z,275.62
2023-08-08T12:14:51.270Z,253.12
2023-08-08T12:15:42.570Z,236.25
2023-08-08T12:16:41.545Z,219.38
2023-08-08T12:17:52.484Z,208.12
2023-08-08T12:18:42.096Z,202.50
2023-08-08T12:19:41.524Z,196.88
2023-08-08T12:20:41.622Z,191.25
2023-08-08T12:21:41.522Z,180.00
2023-08-08T12:22:42.386Z,168.75
2023-08-08T12:23:41.555Z,174.38
2023-08-08T12:24:41.590Z,191.25
2023-08-08T12:25:42.137Z,202.50
2023-08-08T12:26:41.500Z,202.50
2023-08-08T12:27:41.448Z,196.88
2023-08-08T12:28:41.440Z,196.88
2023-08-08T12:29:41.493Z,191.25
2023-08-08T12:30:41.471Z,180.00
2023-08-08T12:31:41.476Z,174.38
2023-08-08T12:32:42.425Z,180.00
2023-08-08T12:33:41.559Z,180.00
2023-08-08T12:34:41.440Z,180.00
2023-08-08T12:35:41.439Z,180.00
2023-08-08T12:36:41.378Z,174.38
2023-08-08T12:37:41.394Z,180.00
2023-08-08T12:38:42.065Z,196.88
2023-08-08T12:39:42.108Z,185.62
2023-08-08T12:40:41.384Z,196.88
2023-08-08T12:41:41.384Z,219.38
2023-08-08T12:42:41.434Z,241.88
2023-08-08T12:43:41.341Z,253.12
2023-08-08T12:44:41.358Z,270.00
2023-08-08T12:45:41.308Z,303.75
2023-08-08T12:46:41.405Z,326.25
2023-08-08T12:47:41.399Z,343.12
2023-08-08T12:48:41.364Z,365.62
2023-08-08T12:49:41.412Z,388.12
2023-08-08T12:50:41.329Z,410.62
2023-08-08T12:51:41.304Z,416.25
2023-08-08T12:52:41.291Z,405.00
2023-08-08T12:53:41.286Z,371.25
2023-08-08T12:54:41.268Z,337.50
2023-08-08T12:55:41.384Z,320.62
2023-08-08T12:56:41.274Z,292.50
2023-08-08T12:57:41.232Z,253.12